createdAt,value
2022-09-20T00:00:48.744Z,98959.16
2022-09-20T00:02:52.695Z,98959.16
2022-09-20T00:04:54.441Z,98956.41
2022-09-20T00:06:58.834Z,98950.38
2022-09-20T00:09:01.375Z,98950.38
2022-09-20T00:11:18.531Z,98955.84
2022-09-20T00:13:20.167Z,98949.53
2022-09-20T00:15:21.723Z,98949.53
2022-09-20T00:17:23.352Z,98944.88
2022-09-20T00:19:25.625Z,98951.22
2022-09-20T00:21:29.809Z,98954.78
2022-09-20T00:23:32.751Z,98954.19
2022-09-20T00:25:34.343Z,98946.81
2022-09-20T00:27:36.074Z,98946.81
2022-09-20T00:29:37.883Z,98944.88
2022-09-20T00:31:44.951Z,98944.88
2022-09-20T00:34:05.123Z,98949.53
2022-09-20T00:36:06.866Z,98949.53
2022-09-20T00:38:09.153Z,98950.38
2022-09-20T00:40:15.685Z,98954.78
2022-09-20T00:42:17.476Z,98950.38
2022-09-20T00:45:06.918Z,98953.41
2022-09-20T00:47:23.133Z,98952.56
2022-09-20T00:49:28.557Z,98951.44
2022-09-20T00:51:37.155Z,98954.19
2022-09-20T00:53:42.089Z,98947.91
2022-09-20T00:55:51.220Z,98937.75
2022-09-20T00:57:54.494Z,98945.16
2022-09-20T00:59:56.644Z,98944.06
2022-09-20T01:02:05.606Z,98944.06
2022-09-20T01:04:08.719Z,98942.16
2022-09-20T01:06:13.918Z,98952.03
2022-09-20T01:08:15.532Z,98952.03
2022-09-20T01:10:17.523Z,98949.84
2022-09-20T01:12:26.894Z,98947.34
2022-09-20T01:14:28.437Z,98948.47
2022-09-20T01:16:35.985Z,98947.34
2022-09-20T01:18:39.469Z,98943.81
2022-09-20T01:20:44.442Z,98947.63
2022-09-20T01:22:59.496Z,98951.22
2022-09-20T01:25:16.996Z,98953.13
2022-09-20T01:27:44.016Z,98954.19
2022-09-20T01:29:53.950Z,98954.78
2022-09-20T01:32:01.814Z,98954.19
2022-09-20T01:34:37.312Z,98956.94
2022-09-20T01:36:57.198Z,98962.44
2022-09-20T01:39:16.123Z,98961.63
2022-09-20T01:41:37.354Z,98960.78
2022-09-20T01:43:55.159Z,98960.78
2022-09-20T01:46:03.540Z,98959.69
2022-09-20T01:48:16.045Z,98960.50
2022-09-20T01:50:41.939Z,98960.78
2022-09-20T01:53:02.735Z,98965.16
2022-09-20T01:55:38.916Z,98970.66
2022-09-20T01:58:04.596Z,98964.38
2022-09-20T02:00:11.934Z,98965.16
2022-09-20T02:03:05.805Z,98964.38
2022-09-20T02:05:34.668Z,98972.84
2022-09-20T02:08:04.072Z,98966.28
2022-09-20T02:10:27.205Z,98971.22
2022-09-20T02:12:50.038Z,98961.03
2022-09-20T02:14:56.456Z,98966.28
2022-09-20T02:17:11.831Z,98963.53
2022-09-20T02:19:34.183Z,98969.84
2022-09-20T02:21:45.700Z,98970.66
2022-09-20T02:24:26.428Z,98966.28
2022-09-20T02:26:38.027Z,98966.00
2022-09-20T02:29:11.879Z,98969.03
2022-09-20T02:31:28.424Z,98958.06
2022-09-20T02:33:45.963Z,98965.16
2022-09-20T02:36:17.579Z,98966.00
2022-09-20T02:38:50.033Z,98969.84
2022-09-20T02:41:19.092Z,98966.28
2022-09-20T02:43:49.098Z,98964.63
2022-09-20T02:46:11.262Z,98961.88
2022-09-20T02:48:17.949Z,98961.03
2022-09-20T02:50:38.631Z,98954.75
2022-09-20T02:52:57.379Z,98961.03
2022-09-20T02:55:17.981Z,98966.28
2022-09-20T02:57:38.265Z,98959.97
2022-09-20T02:59:48.721Z,98959.13
2022-09-20T03:02:15.143Z,98958.31
2022-09-20T03:04:36.036Z,98960.25
2022-09-20T03:06:55.217Z,98953.09
2022-09-20T03:09:42.916Z,98957.19
2022-09-20T03:11:56.987Z,98965.44
2022-09-20T03:14:35.325Z,98961.59
2022-09-20T03:16:58.469Z,98965.69
2022-09-20T03:19:34.001Z,98970.34
2022-09-20T03:22:06.783Z,98966.78
2022-09-20T03:24:28.865Z,98978.59
2022-09-20T03:26:55.759Z,98972.56
2022-09-20T03:29:03.578Z,98972.78
2022-09-20T03:31:09.206Z,98984.59
2022-09-20T03:33:19.313Z,98973.06
2022-09-20T03:35:32.829Z,98983.22
2022-09-20T03:37:53.008Z,98973.88
2022-09-20T03:40:21.684Z,98972.75
2022-09-20T03:42:25.794Z,98966.41
2022-09-20T03:44:58.713Z,98972.47
2022-09-20T03:47:42.919Z,98972.13
2022-09-20T03:50:02.271Z,98981.69
2022-09-20T03:52:46.006Z,98978.66
2022-09-20T03:55:23.047Z,98987.44
2022-09-20T03:57:50.589Z,98986.28
2022-09-20T04:00:20.836Z,98984.91
2022-09-20T04:02:48.290Z,98984.59
2022-09-20T04:04:55.813Z,98979.66
2022-09-20T04:07:12.406Z,98986.47
2022-09-20T04:09:22.883Z,98989.47
2022-09-20T04:12:01.416Z,98990.00
2022-09-20T04:14:16.853Z,98991.34
2022-09-20T04:16:41.451Z,98993.53
2022-09-20T04:19:08.091Z,98991.31
2022-09-20T04:21:15.582Z,98989.91
2022-09-20T04:23:46.721Z,98988.78
2022-09-20T04:25:51.207Z,98994.53
2022-09-20T04:28:04.568Z,98998.63
2022-09-20T04:30:17.235Z,99001.63
2022-09-20T04:32:28.977Z,98999.16
2022-09-20T04:34:59.724Z,99007.88
2022-09-20T04:37:05.040Z,99006.50
2022-09-20T04:39:34.023Z,99014.41
2022-09-20T04:42:09.919Z,99001.25
2022-09-20T04:44:22.128Z,99003.38
2022-09-20T04:46:58.014Z,99007.22
2022-09-20T04:49:27.171Z,99014.06
2022-09-20T04:51:54.411Z,99009.94
2022-09-20T04:54:20.281Z,99011.00
2022-09-20T04:56:32.771Z,99010.44
2022-09-20T04:58:49.402Z,99009.59
2022-09-20T05:01:19.693Z,99009.88
2022-09-20T05:03:40.461Z,99002.72
2022-09-20T05:06:19.297Z,99015.59
2022-09-20T05:08:44.043Z,99007.13
2022-09-20T05:10:57.897Z,99010.13
2022-09-20T05:13:15.003Z,99016.44
2022-09-20T05:15:38.001Z,99017.25
2022-09-20T05:17:55.179Z,99020.00
2022-09-20T05:20:25.401Z,99020.84
2022-09-20T05:22:42.089Z,99021.91
2022-09-20T05:25:14.884Z,99023.56
2022-09-20T05:27:16.504Z,99026.31
2022-09-20T05:29:31.723Z,99027.38
2022-09-20T05:32:03.357Z,99022.75
2022-09-20T05:34:14.472Z,99029.88
2022-09-20T05:36:34.899Z,99034.00
2022-09-20T05:38:48.639Z,99035.94
2022-09-20T05:41:15.903Z,99035.41
2022-09-20T05:43:28.701Z,99036.81
2022-09-20T05:45:48.017Z,99048.56
2022-09-20T05:48:18.201Z,99040.09
2022-09-20T05:50:44.426Z,99049.97
2022-09-20T05:52:51.828Z,99051.34
2022-09-20T05:55:18.330Z,99059.06
2022-09-20T05:57:41.484Z,99054.41
2022-09-20T05:59:45.899Z,99055.81
2022-09-20T06:01:53.284Z,99063.75
2022-09-20T06:04:21.458Z,99061.63
2022-09-20T06:06:32.736Z,99063.00
2022-09-20T06:09:03.870Z,99060.84
2022-09-20T06:11:24.485Z,99052.09
2022-09-20T06:14:03.804Z,99052.66
2022-09-20T06:16:07.765Z,99054.06
2022-09-20T06:18:26.032Z,99056.50
2022-09-20T06:20:43.329Z,99059.00
2022-09-20T06:22:49.193Z,99056.84
2022-09-20T06:25:10.801Z,99050.84
2022-09-20T06:27:24.381Z,99049.50
2022-09-20T06:29:33.108Z,99051.97
2022-09-20T06:31:34.854Z,99047.88
2022-09-20T06:33:57.506Z,99049.25
2022-09-20T06:36:29.710Z,99058.59
2022-09-20T06:39:09.530Z,99055.34
2022-09-20T06:41:28.382Z,99057.84
2022-09-20T06:43:31.486Z,99057.28
2022-09-20T06:45:33.591Z,99059.28
2022-09-20T06:47:38.686Z,99054.34
2022-09-20T06:49:46.646Z,99062.88
2022-09-20T06:51:50.792Z,99065.34
2022-09-20T06:53:54.339Z,99073.66
2022-09-20T06:55:56.718Z,99069.84
2022-09-20T06:57:58.394Z,99070.13
2022-09-20T07:00:00.403Z,99072.63
2022-09-20T07:02:02.281Z,99071.81
2022-09-20T07:04:06.133Z,99080.34
2022-09-20T07:06:09.473Z,99068.59
2022-09-20T07:08:10.964Z,99074.91
2022-09-20T07:10:12.844Z,99072.19
2022-09-20T07:12:14.842Z,99070.59
2022-09-20T07:14:16.750Z,99066.22
2022-09-20T07:16:18.542Z,99081.09
2022-09-20T07:18:20.111Z,99075.63
2022-09-20T07:20:21.980Z,99072.91
2022-09-20T07:22:23.847Z,99074.03
2022-09-20T07:24:25.559Z,99074.88
2022-09-20T07:26:29.172Z,99079.56
2022-09-20T07:28:34.757Z,99079.31
2022-09-20T07:30:36.361Z,99084.81
2022-09-20T07:32:37.919Z,99081.31
2022-09-20T07:34:39.422Z,99081.03
2022-09-20T07:36:41.108Z,99090.13
2022-09-20T07:38:46.851Z,99090.72
2022-09-20T07:41:00.643Z,99093.47
2022-09-20T07:43:02.118Z,99090.19
2022-09-20T07:45:04.099Z,99096.56
2022-09-20T07:47:06.434Z,99101.25
2022-09-20T07:49:07.947Z,99099.34
2022-09-20T07:51:11.767Z,99110.91
2022-09-20T07:53:13.380Z,99110.94
2022-09-20T07:55:14.959Z,99105.72
2022-09-20T07:57:16.800Z,99106.81
2022-09-20T07:59:18.527Z,99123.34
2022-09-20T08:01:21.843Z,99114.00
2022-09-20T08:03:24.429Z,99116.19
2022-09-20T08:05:27.166Z,99115.66
2022-09-20T08:07:29.326Z,99110.97
2022-09-20T08:09:30.877Z,99114.03
2022-09-20T08:11:33.166Z,99109.06
2022-09-20T08:16:06.553Z,99120.34
2022-09-20T08:18:09.446Z,99121.72
2022-09-20T08:20:11.428Z,99122.00
2022-09-20T08:22:13.952Z,99120.63
2022-09-20T08:24:17.362Z,99133.03
2022-09-20T08:26:22.670Z,99133.56
2022-09-20T08:28:24.240Z,99133.84
2022-09-20T08:30:27.843Z,99135.50
2022-09-20T08:32:32.373Z,99133.31
2022-09-20T08:34:34.019Z,99139.63
2022-09-20T08:36:38.732Z,99138.25
2022-09-20T08:41:25.304Z,99143.22
2022-09-20T08:43:30.227Z,99138.00
2022-09-20T08:45:35.097Z,99141.59
2022-09-20T08:47:45.360Z,99143.22
2022-09-20T08:49:47.868Z,99138.25
2022-09-20T08:51:50.783Z,99138.25
2022-09-20T08:53:55.752Z,99136.88
2022-09-20T08:55:59.914Z,99138.53
2022-09-20T08:58:06.164Z,99136.63
2022-09-20T09:00:19.400Z,99138.00
2022-09-20T09:02:21.668Z,99142.38
2022-09-20T09:04:24.922Z,99141.31
2022-09-20T09:06:27.085Z,99135.50
2022-09-20T09:08:37.611Z,99136.63
2022-09-20T09:10:43.623Z,99137.19
2022-09-20T09:12:48.724Z,99132.78
2022-09-20T09:14:57.326Z,99126.72
2022-09-20T09:17:00.808Z,99135.28
2022-09-20T09:19:36.320Z,99132.22
2022-09-20T09:21:43.338Z,99133.34
2022-09-20T09:23:51.583Z,99125.63
2022-09-20T09:25:55.410Z,99129.47
2022-09-20T09:28:00.224Z,99125.63
2022-09-20T09:30:02.672Z,99127.53
2022-09-20T09:32:31.077Z,99127.81
2022-09-20T09:34:35.258Z,99122.31
2022-09-20T09:36:45.838Z,99115.97
2022-09-20T09:38:49.333Z,99125.88
2022-09-20T09:40:56.496Z,99114.84
2022-09-20T09:43:04.076Z,99122.81
2022-09-20T09:45:30.549Z,99116.19
2022-09-20T09:47:37.654Z,99124.16
2022-09-20T09:49:59.821Z,99124.66
2022-09-20T09:52:11.849Z,99125.47
2022-09-20T09:54:19.861Z,99123.25
2022-09-20T09:56:51.955Z,99122.13
2022-09-20T09:59:13.878Z,99121.59
2022-09-20T10:01:55.819Z,99117.66
2022-09-20T10:04:06.664Z,99116.19
2022-09-20T10:06:27.198Z,99117.50
2022-09-20T10:08:45.733Z,99119.94
2022-09-20T10:11:07.200Z,99120.41
2022-09-20T10:13:23.702Z,99109.53
2022-09-20T10:15:38.188Z,99126.53
2022-09-20T10:17:50.740Z,99115.06
2022-09-20T10:20:21.092Z,99115.75
2022-09-20T10:22:29.127Z,99121.19
2022-09-20T10:24:43.087Z,99126.09
2022-09-20T10:27:10.004Z,99116.91
2022-09-20T10:29:26.119Z,99126.81
2022-09-20T10:31:49.862Z,99116.28
2022-09-20T10:34:23.611Z,99130.94
2022-09-20T10:36:46.456Z,99118.72
2022-09-20T10:39:03.022Z,99120.66
2022-09-20T10:41:35.248Z,99122.63
2022-09-20T10:44:06.759Z,99115.75
2022-09-20T10:46:31.800Z,99121.03
2022-09-20T10:48:48.522Z,99124.91
2022-09-20T10:51:04.239Z,99122.75
2022-09-20T10:53:28.032Z,99115.56
2022-09-20T10:55:42.120Z,99118.38
2022-09-20T10:57:56.090Z,99128.31
2022-09-20T11:00:18.311Z,99128.91
2022-09-20T11:02:40.781Z,99130.00
2022-09-20T11:05:11.174Z,99126.13
2022-09-20T11:07:36.799Z,99128.91
2022-09-20T11:09:44.684Z,99124.41
2022-09-20T11:11:55.496Z,99122.13
2022-09-20T11:14:03.409Z,99121.50
2022-09-20T11:16:33.178Z,99120.28
2022-09-20T11:18:41.339Z,99129.28
2022-09-20T11:20:55.643Z,99134.72
2022-09-20T11:23:00.405Z,99132.13
2022-09-20T11:25:19.428Z,99120.72
2022-09-20T11:27:29.626Z,99130.00
2022-09-20T11:29:44.417Z,99128.00
2022-09-20T11:31:50.638Z,99132.34
2022-09-20T11:33:58.097Z,99127.25
2022-09-20T11:36:04.348Z,99127.19
2022-09-20T11:38:17.630Z,99124.34
2022-09-20T11:40:25.242Z,99130.94
2022-09-20T11:42:35.880Z,99131.69
2022-09-20T11:44:41.162Z,99128.53
2022-09-20T11:46:48.743Z,99122.63
2022-09-20T11:49:01.287Z,99125.88
2022-09-20T11:51:21.949Z,99115.22
2022-09-20T11:53:43.304Z,99117.00
2022-09-20T11:56:08.262Z,99103.81
2022-09-20T11:58:16.825Z,99115.28
2022-09-20T12:00:30.889Z,99115.59
2022-09-20T12:02:49.680Z,99101.25
2022-09-20T12:04:54.456Z,99103.22
2022-09-20T12:07:10.473Z,99111.59
2022-09-20T12:09:34.956Z,99104.44
2022-09-20T12:11:39.155Z,99104.22
2022-09-20T12:13:51.797Z,99101.75
2022-09-20T12:15:59.926Z,99108.41
2022-09-20T12:18:09.397Z,99105.44
2022-09-20T12:20:33.131Z,99101.09
2022-09-20T12:22:34.824Z,99090.09
2022-09-20T12:24:45.290Z,99097.50
2022-09-20T12:26:49.502Z,99086.91
2022-09-20T12:28:56.421Z,99090.81
2022-09-20T12:31:26.456Z,99092.88
2022-09-20T12:34:09.316Z,99088.75
2022-09-20T12:36:17.883Z,99078.47
2022-09-20T12:38:30.443Z,99078.97
2022-09-20T12:40:32.567Z,99079.69
2022-09-20T12:42:35.195Z,99080.63
2022-09-20T12:44:40.972Z,99074.31
2022-09-20T12:46:52.736Z,99065.22
2022-09-20T12:49:41.919Z,99068.06
2022-09-20T12:52:10.403Z,99068.16
2022-09-20T12:54:13.980Z,99059.97
2022-09-20T12:56:28.275Z,99058.34
2022-09-20T12:58:48.343Z,99064.53
2022-09-20T13:00:56.042Z,99069.91
2022-09-20T13:02:59.943Z,99072.66
2022-09-20T13:05:01.765Z,99071.06
2022-09-20T13:07:43.554Z,99064.16
2022-09-20T13:09:48.404Z,99071.06
2022-09-20T13:11:54.188Z,99066.50
2022-09-20T13:14:09.326Z,99060.81
2022-09-20T13:16:22.739Z,99071.16
2022-09-20T13:18:26.344Z,99061.53
2022-09-20T13:20:31.533Z,99062.78
2022-09-20T13:22:43.475Z,99059.56
2022-09-20T13:24:47.838Z,99061.03
2022-09-20T13:26:51.975Z,99062.56
2022-09-20T13:28:59.310Z,99058.50
2022-09-20T13:31:23.290Z,99058.88
2022-09-20T13:33:25.541Z,99048.94
2022-09-20T13:35:32.464Z,99054.00
2022-09-20T13:37:35.694Z,99052.75
2022-09-20T13:39:37.656Z,99049.00
2022-09-20T13:41:39.440Z,99048.69
2022-09-20T13:43:46.645Z,99052.47
2022-09-20T13:45:53.881Z,99052.31
2022-09-20T13:47:58.649Z,99054.63
2022-09-20T13:50:17.744Z,99055.50
2022-09-20T13:52:25.011Z,99052.22
2022-09-20T13:54:31.780Z,99059.78
2022-09-20T13:56:33.888Z,99051.78
2022-09-20T13:58:37.252Z,99058.50
2022-09-20T14:00:47.826Z,99051.94
2022-09-20T14:02:50.305Z,99051.00
2022-09-20T14:04:55.314Z,99046.22
2022-09-20T14:07:01.591Z,99049.00
2022-09-20T14:09:10.668Z,99054.91
2022-09-20T14:11:21.397Z,99059.16
2022-09-20T14:13:23.068Z,99059.16
2022-09-20T14:15:27.032Z,99057.53
2022-09-20T14:17:36.490Z,99063.75
2022-09-20T14:19:41.326Z,99060.47
2022-09-20T14:21:44.373Z,99067.00
2022-09-20T14:23:54.726Z,99073.72
2022-09-20T14:26:06.587Z,99074.00
2022-09-20T14:28:19.932Z,99074.31
2022-09-20T14:30:35.266Z,99075.69
2022-09-20T14:32:44.881Z,99070.41
2022-09-20T14:35:01.720Z,99076.09
2022-09-20T14:37:09.842Z,99076.38
2022-09-20T14:39:16.350Z,99070.78
2022-09-20T14:41:28.995Z,99076.94
2022-09-20T14:43:36.129Z,99069.34
2022-09-20T14:45:43.269Z,99072.56
2022-09-20T14:48:11.838Z,99073.31
2022-09-20T14:50:31.507Z,99076.53
2022-09-20T14:52:38.587Z,99075.81
2022-09-20T14:54:41.210Z,99076.78
2022-09-20T14:56:54.856Z,99070.84
2022-09-20T14:59:27.086Z,99078.81
2022-09-20T15:01:28.892Z,99081.50
2022-09-20T15:03:34.023Z,99082.25
2022-09-20T15:05:50.032Z,99076.63
2022-09-20T15:07:56.801Z,99082.09
2022-09-20T15:09:58.644Z,99075.28
2022-09-20T15:12:06.096Z,99081.28
2022-09-20T15:14:11.508Z,99082.84
2022-09-20T15:16:17.355Z,99080.47
2022-09-20T15:18:26.771Z,99083.94
2022-09-20T15:20:28.725Z,99088.28
2022-09-20T15:22:32.140Z,99086.75
2022-09-20T15:24:33.734Z,99089.13
2022-09-20T15:26:35.631Z,99090.34
2022-09-20T15:28:37.246Z,99095.78
2022-09-20T15:30:40.539Z,99108.09
2022-09-20T15:32:46.051Z,99105.19
2022-09-20T15:34:47.708Z,99113.06
2022-09-20T15:36:50.706Z,99112.34
2022-09-20T15:38:54.131Z,99121.56
2022-09-20T15:40:55.969Z,99122.50
2022-09-20T15:43:00.064Z,99115.38
2022-09-20T15:45:01.670Z,99122.16
2022-09-20T15:47:04.550Z,99128.91
2022-09-20T15:49:06.767Z,99126.22
2022-09-20T15:51:11.347Z,99117.47
2022-09-20T15:53:12.963Z,99118.66
2022-09-20T15:55:14.688Z,99118.75
2022-09-20T15:57:16.187Z,99121.59
2022-09-20T15:59:23.309Z,99118.41
2022-09-20T16:01:32.930Z,99119.56
2022-09-20T16:03:36.002Z,99125.16
2022-09-20T16:05:37.914Z,99129.66
2022-09-20T16:07:39.745Z,99128.59
2022-09-20T16:09:41.223Z,99136.97
2022-09-20T16:11:42.880Z,99137.38
2022-09-20T16:13:44.551Z,99142.97
2022-09-20T16:15:53.943Z,99149.91
2022-09-20T16:18:13.841Z,99144.47
2022-09-20T16:20:15.547Z,99159.47
2022-09-20T16:22:19.375Z,99165.88
2022-09-20T16:24:30.037Z,99166.25
2022-09-20T16:26:34.602Z,99163.56
2022-09-20T16:28:38.496Z,99161.13
2022-09-20T16:30:40.234Z,99160.38
2022-09-20T16:32:42.948Z,99162.66
2022-09-20T16:34:45.518Z,99166.63
2022-09-20T16:36:49.105Z,99180.75
2022-09-20T16:38:52.054Z,99170.88
2022-09-20T16:40:55.678Z,99173.97
2022-09-20T16:42:58.795Z,99173.19
2022-09-20T16:45:00.559Z,99180.16
2022-09-20T16:47:03.943Z,99178.84
2022-09-20T16:49:09.581Z,99180.88
2022-09-20T16:51:11.920Z,99177.91
2022-09-20T16:53:13.485Z,99175.19
2022-09-20T16:55:15.097Z,99183.50
2022-09-20T16:57:16.982Z,99186.59
2022-09-20T16:59:22.481Z,99187.75
2022-09-20T17:01:24.439Z,99190.00
2022-09-20T17:03:27.156Z,99193.66
2022-09-20T17:05:29.461Z,99188.94
2022-09-20T17:07:31.440Z,99188.44
2022-09-20T17:09:32.969Z,99194.81
2022-09-20T17:11:37.669Z,99181.03
2022-09-20T17:13:40.675Z,99188.53
2022-09-20T17:15:43.409Z,99192.16
2022-09-20T17:17:45.783Z,99194.94
2022-09-20T17:19:47.443Z,99196.06
2022-09-20T17:21:50.999Z,99206.84
2022-09-20T17:23:55.301Z,99200.25
2022-09-20T17:26:06.503Z,99205.25
2022-09-20T17:28:08.110Z,99219.06
2022-09-20T17:30:10.882Z,99227.88
2022-09-20T17:32:12.691Z,99227.91
2022-09-20T17:34:15.464Z,99225.72
2022-09-20T17:36:21.472Z,99220.22
2022-09-20T17:38:23.208Z,99223.00
2022-09-20T17:40:24.879Z,99224.66
2022-09-20T17:42:28.384Z,99229.38
2022-09-20T17:44:30.022Z,99238.44
2022-09-20T17:46:32.765Z,99237.38
2022-09-20T17:48:34.742Z,99236.25
2022-09-20T17:50:36.617Z,99240.69
2022-09-20T17:52:38.659Z,99245.09
2022-09-20T17:54:40.188Z,99245.94
2022-09-20T17:56:45.099Z,99244.31
2022-09-20T17:58:46.763Z,99245.69
2022-09-20T18:00:49.140Z,99248.44
2022-09-20T18:02:50.755Z,99244.84
2022-09-20T18:04:52.587Z,99242.94
2022-09-20T18:06:57.826Z,99254.50
2022-09-20T18:09:02.544Z,99262.78
2022-09-20T18:11:04.855Z,99260.00
2022-09-20T18:13:06.389Z,99258.09
2022-09-20T18:15:08.563Z,99254.22
2022-09-20T18:17:10.372Z,99261.38
2022-09-20T18:19:13.128Z,99269.63
2022-09-20T18:21:17.234Z,99273.19
2022-09-20T18:23:18.793Z,99274.00
2022-09-20T18:25:20.419Z,99273.75
2022-09-20T18:27:22.255Z,99275.38
2022-09-20T18:29:24.816Z,99281.72
2022-09-20T18:31:34.694Z,99277.00
2022-09-20T18:33:37.289Z,99283.88
2022-09-20T18:35:42.280Z,99274.47
2022-09-20T18:37:46.479Z,99271.47
2022-09-20T18:39:51.004Z,99270.34
2022-09-20T18:41:53.592Z,99285.47
2022-09-20T18:43:56.097Z,99275.28
2022-09-20T18:46:02.790Z,99278.56
2022-09-20T18:48:19.413Z,99274.72
2022-09-20T18:50:28.625Z,99276.34
2022-09-20T18:52:30.167Z,99271.38
2022-09-20T18:54:33.565Z,99282.94
2022-09-20T18:56:36.660Z,99275.19
2022-09-20T18:58:39.979Z,99274.66
2022-09-20T19:00:42.015Z,99293.34
2022-09-20T19:03:13.058Z,99297.47
2022-09-20T19:05:29.061Z,99289.19
2022-09-20T19:07:42.512Z,99285.88
2022-09-20T19:10:05.621Z,99296.59
2022-09-20T19:12:34.295Z,99299.88
2022-09-20T19:14:53.828Z,99308.63
2022-09-20T19:17:01.305Z,99309.19
2022-09-20T19:19:18.774Z,99312.19
2022-09-20T19:21:52.757Z,99310.25
2022-09-20T19:24:07.684Z,99315.19
2022-09-20T19:26:24.854Z,99321.22
2022-09-20T19:28:26.811Z,99323.41
2022-09-20T19:30:28.751Z,99333.28
2022-09-20T19:32:34.529Z,99339.34
2022-09-20T19:34:38.934Z,99340.44
2022-09-20T19:36:54.892Z,99346.44
2022-09-20T19:39:07.738Z,99344.22
2022-09-20T19:41:30.307Z,99350.28
2022-09-20T19:43:59.543Z,99344.47
2022-09-20T19:46:31.364Z,99349.41
2022-09-20T19:48:47.146Z,99352.94
2022-09-20T19:50:52.728Z,99352.59
2022-09-20T19:52:58.315Z,99353.69
2022-09-20T19:55:02.787Z,99355.03
2022-09-20T19:57:13.212Z,99358.91
2022-09-20T19:59:17.825Z,99361.31
2022-09-20T20:01:22.839Z,99358.03
2022-09-20T20:03:28.502Z,99363.19
2022-09-20T20:05:30.824Z,99363.72
2022-09-20T20:07:39.070Z,99367.56
2022-09-20T20:10:02.488Z,99371.09
2022-09-20T20:13:00.206Z,99369.94
2022-09-20T20:15:29.895Z,99369.91
2022-09-20T20:17:48.545Z,99369.63
2022-09-20T20:20:00.097Z,99380.84
2022-09-20T20:22:23.103Z,99376.13
2022-09-20T20:24:35.416Z,99379.41
2022-09-20T20:26:43.065Z,99378.84
2022-09-20T20:28:44.852Z,99378.28
2022-09-20T20:30:49.499Z,99380.44
2022-09-20T20:32:57.989Z,99385.63
2022-09-20T20:35:02.979Z,99388.03
2022-09-20T20:37:05.070Z,99380.91
2022-09-20T20:39:07.063Z,99385.25
2022-09-20T20:41:15.352Z,99385.78
2022-09-20T20:43:20.096Z,99382.72
2022-09-20T20:45:22.031Z,99386.81
2022-09-20T20:47:23.456Z,99388.41
2022-09-20T20:49:30.928Z,99387.03
2022-09-20T20:51:33.266Z,99392.19
2022-09-20T20:53:37.362Z,99389.94
2022-09-20T20:55:41.308Z,99394.88
2022-09-20T20:57:45.340Z,99390.16
2022-09-20T20:59:46.885Z,99395.06
2022-09-20T21:01:48.611Z,99393.91
2022-09-20T21:03:52.549Z,99391.44
2022-09-20T21:05:54.127Z,99393.84
2022-09-20T21:07:57.982Z,99397.94
2022-09-20T21:09:59.768Z,99397.63
2022-09-20T21:12:02.504Z,99405.25
2022-09-20T21:14:07.097Z,99408.53
2022-09-20T21:16:17.073Z,99406.25
2022-09-20T21:18:18.740Z,99405.94
2022-09-20T21:20:21.706Z,99415.25
2022-09-20T21:22:23.311Z,99410.84
2022-09-20T21:24:24.807Z,99414.34
2022-09-20T21:26:28.323Z,99409.09
2022-09-20T21:28:30.804Z,99415.69
2022-09-20T21:30:32.533Z,99419.75
2022-09-20T21:32:34.561Z,99419.16
2022-09-20T21:34:36.168Z,99425.75
2022-09-20T21:36:45.176Z,99427.09
2022-09-20T21:38:55.948Z,99420.19
2022-09-20T21:41:04.918Z,99423.44
2022-09-20T21:43:06.671Z,99436.56
2022-09-20T21:45:11.034Z,99428.56
2022-09-20T21:47:18.831Z,99430.75
2022-09-20T21:49:20.460Z,99438.41
2022-09-20T21:51:25.430Z,99437.81
2022-09-20T21:53:27.147Z,99431.78
2022-09-20T21:55:28.732Z,99435.56
2022-09-20T21:57:30.349Z,99439.38
2022-09-20T21:59:31.997Z,99437.75
2022-09-20T22:01:37.967Z,99442.06
2022-09-20T22:03:51.760Z,99439.31
2022-09-20T22:05:54.278Z,99440.41
2022-09-20T22:07:58.382Z,99436.00
2022-09-20T22:09:59.975Z,99432.41
2022-09-20T22:12:01.698Z,99432.41
2022-09-20T22:14:03.508Z,99436.00
2022-09-20T22:16:08.177Z,99435.16
2022-09-20T22:18:09.710Z,99436.25
2022-09-20T22:20:12.251Z,99438.16
2022-09-20T22:22:13.867Z,99438.16
2022-09-20T22:24:16.599Z,99434.84
2022-09-20T22:26:21.542Z,99440.31
2022-09-20T22:28:23.361Z,99437.59
2022-09-20T22:30:24.952Z,99432.09
2022-09-20T22:32:26.454Z,99444.41
2022-09-20T22:34:27.933Z,99439.16
2022-09-20T22:36:32.533Z,99440.00
2022-09-20T22:38:34.235Z,99435.34
2022-09-20T22:40:35.887Z,99431.75
2022-09-20T22:42:37.436Z,99439.41
2022-09-20T22:44:39.088Z,99428.44
2022-09-20T22:46:40.853Z,99444.06
2022-09-20T22:48:42.999Z,99439.69
2022-09-20T22:50:44.842Z,99446.78
2022-09-20T22:52:46.323Z,99440.47
2022-09-20T22:54:48.995Z,99438.84
2022-09-20T22:56:53.210Z,99450.03
2022-09-20T22:59:00.013Z,99450.28
2022-09-20T23:01:14.965Z,99449.72
2022-09-20T23:03:17.754Z,99448.31
2022-09-20T23:05:19.334Z,99457.59
2022-09-20T23:07:21.221Z,99450.47
2022-09-20T23:09:25.597Z,99455.34
2022-09-20T23:11:28.662Z,99452.03
2022-09-20T23:13:30.439Z,99452.03
2022-09-20T23:15:32.240Z,99449.56
2022-09-20T23:17:33.862Z,99460.72
2022-09-20T23:19:35.319Z,99458.00
2022-09-20T23:21:38.999Z,99459.94
2022-09-20T23:23:44.884Z,99453.03
2022-09-20T23:25:51.629Z,99461.75
2022-09-20T23:27:54.387Z,99464.47
2022-09-20T23:29:56.053Z,99456.75
2022-09-20T23:31:57.703Z,99460.56
2022-09-20T23:34:00.775Z,99458.91
2022-09-20T23:36:08.398Z,99455.59
2022-09-20T23:38:09.942Z,99464.03
2022-09-20T23:40:11.948Z,99458.84
2022-09-20T23:42:13.608Z,99458.00
2022-09-20T23:44:15.300Z,99456.31
2022-09-20T23:46:19.092Z,99463.72
2022-09-20T23:48:20.609Z,99461.22
2022-09-20T23:50:22.309Z,99457.91
2022-09-20T23:52:23.953Z,99459.81
2022-09-20T23:54:28.152Z,99455.41
2022-09-20T23:56:30.104Z,99459.22
2022-09-20T23:58:32.462Z,99460.28
